Time;durP1;ratioP1;P1;durP2;ratioP2;P2;SDS_P1;SDS_P2;PMS_P1;PMS_P2;Temp;Humidity;BMP_temperature;BMP_pressure;BME280_temperature;BME280_humidity;BME280_pressure;Samples;Min_cycle;Max_cycle;Signal;HPM_P1;HPM_P2
2023/05/23 00:01:06;;;;;;;9.23;5.40;;;;;;;13.98;86.85;96721.63;5007543;28;20233;-72
2023/05/23 00:04:17;;;;;;;6.40;5.47;;;;;;;13.89;87.68;96714.41;5010339;28;20288;-75
2023/05/23 00:07:38;;;;;;;6.97;5.30;;;;;;;13.95;87.45;96716.59;5009947;28;20263;-75
2023/05/23 00:10:58;;;;;;;6.07;5.27;;;;;;;13.89;87.85;96710.03;5008807;28;20244;-72
2023/05/23 00:14:19;;;;;;;7.73;5.53;;;;;;;13.64;89.33;96706.50;5008705;28;20207;-74
2023/05/23 00:17:40;;;;;;;6.60;5.63;;;;;;;13.70;88.84;96700.91;5009859;28;20205;-70
2023/05/23 00:21:01;;;;;;;9.17;6.30;;;;;;;13.76;88.60;96700.53;5009879;28;20593;-71
2023/05/23 00:24:21;;;;;;;9.17;6.90;;;;;;;13.49;89.33;96695.28;5009208;28;20272;-71
2023/05/23 00:27:42;;;;;;;8.10;5.77;;;;;;;13.34;90.20;96693.63;5008236;28;20228;-70
2023/05/23 00:31:03;;;;;;;6.20;5.33;;;;;;;13.42;90.42;96693.16;5009069;28;20239;-72
2023/05/23 00:34:23;;;;;;;8.47;5.93;;;;;;;13.36;90.29;96691.78;5009791;28;20284;-71
2023/05/23 00:37:44;;;;;;;8.47;5.43;;;;;;;13.55;89.81;96686.25;5009396;28;20193;-73
2023/05/23 00:41:05;;;;;;;7.30;6.17;;;;;;;13.80;88.86;96686.38;5008416;28;20197;-70
2023/05/23 00:44:25;;;;;;;8.10;5.70;;;;;;;13.99;88.02;96689.47;5008269;28;20583;-72
2023/05/23 00:47:46;;;;;;;8.50;5.90;;;;;;;14.19;86.92;96690.75;5009439;28;20202;-69
2023/05/23 00:51:07;;;;;;;8.83;5.37;;;;;;;14.20;86.13;96693.25;5009270;28;20264;-70
2023/05/23 00:54:28;;;;;;;6.60;4.63;;;;;;;14.10;85.94;96697.41;5008091;28;20345;-68
2023/05/23 00:57:48;;;;;;;5.87;5.00;;;;;;;14.01;85.96;96682.41;5006588;28;20198;-69
2023/05/23 01:01:09;;;;;;;8.00;4.93;;;;;;;13.96;85.69;96667.97;5008817;28;20208;-70
2023/05/23 01:04:32;;;;;;;8.07;5.17;;;;;;;13.95;86.41;96674.16;5007852;28;20634;-67
2023/05/23 01:07:53;;;;;;;6.40;5.30;;;;;;;13.95;86.46;96672.34;5008569;28;20196;-67
2023/05/23 01:11:14;;;;;;;8.47;5.00;;;;;;;13.78;87.05;96670.03;5007697;28;20390;-67
2023/05/23 01:14:37;;;;;;;5.73;5.03;;;;;;;13.80;86.76;96665.56;5011086;28;20256;-69
2023/05/23 01:17:58;;;;;;;6.33;5.27;;;;;;;13.88;86.21;96676.31;5009173;28;20208;-70
2023/05/23 01:21:19;;;;;;;8.67;5.63;;;;;;;13.76;86.83;96672.72;5021367;28;20206;-69
2023/05/23 01:24:42;;;;;;;8.57;5.90;;;;;;;13.63;87.23;96666.63;4999966;28;20201;-78
2023/05/23 01:28:16;;;;;;;6.07;4.97;;;;;;;13.76;86.90;96666.69;4988011;28;20206;-76
2023/05/23 01:31:37;;;;;;;9.03;5.80;;;;;;;13.79;86.55;96671.69;4981695;28;20687;-77
2023/05/23 01:34:58;;;;;;;10.77;6.90;;;;;;;13.50;87.85;96665.72;5004239;28;20192;-74
2023/05/23 01:38:18;;;;;;;7.73;5.77;;;;;;;13.29;88.66;96663.66;5003659;28;20854;-77
2023/05/23 01:41:39;;;;;;;8.53;5.77;;;;;;;13.63;87.24;96671.84;5002622;28;20218;-66
2023/05/23 01:45:00;;;;;;;8.03;6.17;;;;;;;13.73;87.05;96661.66;5002814;28;20671;-67
2023/05/23 01:48:21;;;;;;;8.00;5.90;;;;;;;13.35;88.04;96658.06;4989477;28;20199;-66
2023/05/23 01:51:43;;;;;;;8.50;5.60;;;;;;;13.55;88.45;96658.47;5003819;28;20285;-66
2023/05/23 01:55:05;;;;;;;7.47;5.47;;;;;;;13.66;87.75;96658.63;5006830;28;20865;-66
2023/05/23 01:58:26;;;;;;;6.47;5.50;;;;;;;13.86;86.75;96646.94;5006709;28;20220;-66
2023/05/23 02:01:46;;;;;;;9.40;5.63;;;;;;;13.81;86.78;96643.78;5005926;28;20247;-67
2023/05/23 02:05:10;;;;;;;9.03;5.97;;;;;;;13.92;87.26;96653.50;5022395;28;20209;-67
2023/05/23 02:08:30;;;;;;;7.60;5.87;;;;;;;13.68;86.97;96661.13;4991128;28;20202;-66
2023/05/23 02:11:51;;;;;;;11.63;6.73;;;;;;;13.68;87.48;96653.34;5005055;28;20235;-67
2023/05/23 02:15:12;;;;;;;9.20;6.07;;;;;;;14.10;86.19;96667.91;5006851;28;20831;-67
2023/05/23 02:18:33;;;;;;;7.47;6.53;;;;;;;13.98;86.01;96668.72;4991685;28;20194;-66
2023/05/23 02:22:13;;;;;;;11.93;6.57;;;;;;;14.14;85.36;96672.81;5006456;28;20257;-67
2023/05/23 02:25:34;;;;;;;7.77;5.93;;;;;;;14.27;85.68;96689.31;5004677;28;20217;-67
2023/05/23 02:28:55;;;;;;;9.47;6.73;;;;;;;14.27;85.21;96662.44;5006219;28;20227;-73
2023/05/23 02:32:16;;;;;;;8.07;5.83;;;;;;;14.30;84.31;96657.88;5005419;28;20236;-67
2023/05/23 02:35:36;;;;;;;8.07;6.03;;;;;;;14.05;86.43;96670.84;5007742;28;20206;-69
2023/05/23 02:38:57;;;;;;;8.60;5.77;;;;;;;13.95;86.42;96667.16;5005558;28;20201;-70
2023/05/23 02:42:18;;;;;;;8.00;6.10;;;;;;;14.00;86.76;96653.84;5004110;28;20194;-66
2023/05/23 02:45:40;;;;;;;9.47;6.23;;;;;;;14.15;86.14;96664.09;5004524;28;20198;-68
2023/05/23 02:49:00;;;;;;;8.20;6.60;;;;;;;14.20;85.95;96666.41;5007402;28;20225;-67
2023/05/23 02:52:21;;;;;;;7.43;5.97;;;;;;;14.17;85.97;96670.03;4994790;28;20241;-68
2023/05/23 02:55:42;;;;;;;9.93;6.50;;;;;;;14.15;86.56;96663.25;4990910;28;20306;-67
2023/05/23 02:59:02;;;;;;;8.33;5.70;;;;;;;14.41;84.52;96678.00;4991706;28;20305;-66
2023/05/23 03:02:23;;;;;;;8.53;6.20;;;;;;;14.69;83.55;96675.25;4992778;28;20284;-66
2023/05/23 03:05:44;;;;;;;7.87;6.80;;;;;;;14.83;82.69;96671.69;4993035;28;20229;-66
2023/05/23 03:09:06;;;;;;;7.43;6.07;;;;;;;15.20;80.93;96676.03;4976308;28;20214;-66
2023/05/23 03:12:28;;;;;;;8.80;6.13;;;;;;;15.31;80.52;96668.31;4992860;28;20765;-67
2023/05/23 03:15:48;;;;;;;6.77;5.53;;;;;;;15.42;79.45;96670.97;4993832;28;20199;-71
2023/05/23 03:19:09;;;;;;;6.57;5.37;;;;;;;15.81;78.07;96678.59;5011708;28;20206;-67
2023/05/23 03:22:30;;;;;;;7.20;5.03;;;;;;;16.17;75.95;96665.47;5013851;28;20207;-66
2023/05/23 03:25:50;;;;;;;8.10;4.80;;;;;;;16.26;75.58;96674.38;5012207;28;20199;-67
2023/05/23 03:29:11;;;;;;;5.37;4.67;;;;;;;16.25;75.04;96660.50;5009862;28;20296;-65
2023/05/23 03:32:47;;;;;;;7.53;4.60;;;;;;;16.51;74.50;96676.03;5003726;28;20199;-66
2023/05/23 03:36:08;;;;;;;8.07;4.60;;;;;;;16.65;74.41;96676.66;5011264;28;20698;-77
2023/05/23 03:39:29;;;;;;;7.63;4.63;;;;;;;17.00;72.65;96674.00;5008585;28;20216;-68
2023/05/23 03:42:50;;;;;;;8.70;4.77;;;;;;;17.30;70.53;96674.22;5003732;28;20200;-76
2023/05/23 03:46:12;;;;;;;4.50;4.10;;;;;;;17.40;70.04;96684.81;4994038;28;20643;-67
2023/05/23 03:49:34;;;;;;;5.13;4.00;;;;;;;17.34;70.37;96680.06;4991923;28;20279;-67
2023/05/23 03:52:54;;;;;;;6.67;4.93;;;;;;;17.18;70.09;96683.03;4993870;28;20286;-67
2023/05/23 03:56:16;;;;;;;5.37;4.30;;;;;;;17.10;71.65;96682.81;4991290;28;20231;-66
2023/05/23 03:59:37;;;;;;;5.43;4.90;;;;;;;17.11;71.44;96679.22;4990329;28;20203;-66
2023/05/23 04:02:59;;;;;;;8.20;5.50;;;;;;;17.05;71.69;96684.94;4973671;28;20207;-67
2023/05/23 04:06:19;;;;;;;8.13;5.33;;;;;;;17.19;70.48;96687.31;4989308;28;20235;-66
2023/05/23 04:09:40;;;;;;;7.47;5.40;;;;;;;17.22;70.56;96686.25;5007573;28;20219;-73
2023/05/23 04:13:01;;;;;;;7.83;5.13;;;;;;;17.22;70.58;96694.09;5005353;28;20204;-66
2023/05/23 04:16:22;;;;;;;8.00;4.80;;;;;;;17.21;71.08;96690.63;5003451;28;20214;-71
2023/05/23 04:19:44;;;;;;;8.27;4.83;;;;;;;17.14;71.61;96693.84;5000108;28;20213;-75
2023/05/23 04:23:05;;;;;;;8.43;5.20;;;;;;;17.13;71.43;96693.03;4988908;28;20203;-68
2023/05/23 04:26:30;;;;;;;8.03;4.77;;;;;;;17.28;71.54;96697.06;4988026;28;20200;-67
2023/05/23 04:29:51;;;;;;;7.33;5.13;;;;;;;17.32;71.50;96698.50;4987729;28;20203;-68
2023/05/23 04:33:12;;;;;;;5.90;4.73;;;;;;;17.72;69.65;96707.53;4988292;28;20274;-66
2023/05/23 04:36:36;;;;;;;8.13;4.73;;;;;;;18.14;68.64;96705.03;4993927;28;20203;-67
2023/05/23 04:39:58;;;;;;;5.63;4.70;;;;;;;18.63;66.30;96715.81;5008976;28;20211;-72
2023/05/23 04:43:41;;;;;;;9.33;4.33;;;;;;;18.59;67.60;96711.78;5007284;28;20300;-67
2023/05/23 04:47:16;;;;;;;6.87;4.60;;;;;;;18.89;66.75;96718.91;4990243;28;20215;-68
2023/05/23 04:50:42;;;;;;;7.77;5.17;;;;;;;18.92;66.53;96729.97;5007692;28;20235;-68
2023/05/23 04:54:03;;;;;;;5.43;4.87;;;;;;;19.08;65.42;96729.53;5009182;28;20307;-67
2023/05/23 04:57:24;;;;;;;6.87;4.63;;;;;;;19.30;64.79;96724.94;4990431;28;20607;-66
2023/05/23 05:00:46;;;;;;;7.90;4.87;;;;;;;19.48;64.82;96735.69;5005950;28;20198;-68
2023/05/23 05:04:07;;;;;;;6.13;4.70;;;;;;;19.53;63.21;96737.94;5006108;28;20197;-68
2023/05/23 05:07:29;;;;;;;7.63;4.87;;;;;;;19.06;64.90;96739.31;5007077;28;20224;-66
2023/05/23 05:10:50;;;;;;;6.97;4.70;;;;;;;18.65;66.33;96737.50;5006867;28;20319;-77
2023/05/23 05:14:12;;;;;;;6.20;4.90;;;;;;;18.55;67.55;96745.31;5005381;28;20645;-70
2023/05/23 05:17:35;;;;;;;8.60;4.30;;;;;;;18.86;66.98;96748.00;5006147;28;20680;-70
2023/05/23 05:20:58;;;;;;;5.50;4.93;;;;;;;18.94;66.42;96751.66;5006365;28;20674;-71
2023/05/23 05:24:21;;;;;;;5.87;4.47;;;;;;;19.06;65.94;96753.25;5006560;28;20200;-69
2023/05/23 05:27:42;;;;;;;6.27;4.67;;;;;;;18.84;66.15;96756.03;5005995;28;20198;-67
2023/05/23 05:31:05;;;;;;;5.83;4.93;;;;;;;19.11;65.35;96748.47;4990883;28;20671;-73
2023/05/23 05:34:26;;;;;;;7.33;4.80;;;;;;;18.91;66.33;96751.09;5002053;28;20380;-72
2023/05/23 05:37:47;;;;;;;6.60;4.30;;;;;;;18.54;67.43;96746.28;5003114;28;20212;-71
2023/05/23 05:41:08;;;;;;;5.90;5.00;;;;;;;18.48;66.93;96744.16;5002802;28;20672;-77
2023/05/23 05:44:31;;;;;;;5.80;4.90;;;;;;;18.50;67.79;96765.84;4985783;28;20724;-77
2023/05/23 05:47:52;;;;;;;8.33;4.97;;;;;;;18.46;67.94;96774.09;5001609;28;20205;-76
2023/05/23 05:51:15;;;;;;;7.10;4.70;;;;;;;18.57;66.46;96780.13;4972474;28;20276;-76
2023/05/23 05:54:36;;;;;;;5.80;4.70;;;;;;;18.54;67.39;96769.91;4986950;28;20238;-73
2023/05/23 05:57:58;;;;;;;5.37;4.40;;;;;;;18.59;66.62;96767.72;5002130;28;20202;-68
2023/05/23 06:01:50;;;;;;;5.67;4.77;;;;;;;18.82;66.97;96785.97;4986622;28;20231;-69
2023/05/23 06:05:15;;;;;;;4.77;4.07;;;;;;;18.60;65.79;96785.13;4986985;28;20296;-73
2023/05/23 06:07:56;;;;;;;8.20;5.07;;;;;;;18.46;66.92;96781.97;4991768;28;20194;-68
2023/05/23 06:10:23;;;;;;;7.57;5.53;;;;;;;18.69;65.90;96780.94;4989734;28;20826;-77
2023/05/23 06:12:51;;;;;;;9.53;4.97;;;;;;;18.65;65.87;96782.09;4986611;28;20192;-69
2023/05/23 06:15:18;;;;;;;5.70;4.07;;;;;;;18.68;66.11;96777.47;4988195;28;20187;-71
2023/05/23 06:17:45;;;;;;;5.93;5.03;;;;;;;18.77;66.17;96780.28;4985272;28;20279;-77
2023/05/23 06:20:16;;;;;;;7.33;4.43;;;;;;;18.70;65.74;96779.94;4987029;28;20222;-68
2023/05/23 06:22:48;;;;;;;5.13;4.60;;;;;;;18.77;65.47;96783.75;5002098;28;20563;-74
2023/05/23 06:25:17;;;;;;;5.47;4.97;;;;;;;18.90;65.37;96780.94;4970134;28;20201;-70
2023/05/23 06:27:47;;;;;;;10.30;4.80;;;;;;;18.91;64.95;96778.19;4969561;28;20229;-67
2023/05/23 06:30:14;;;;;;;6.43;4.27;;;;;;;18.92;64.89;96787.72;4986925;28;20304;-69
2023/05/23 06:32:41;;;;;;;4.90;4.43;;;;;;;19.07;64.99;96791.69;4986235;28;20195;-70
2023/05/23 06:35:09;;;;;;;7.13;4.77;;;;;;;19.14;64.64;96790.22;4984575;28;20229;-68
2023/05/23 06:37:36;;;;;;;10.47;5.17;;;;;;;19.23;64.66;96778.94;4986173;28;20236;-68
2023/05/23 06:40:04;;;;;;;7.90;5.63;;;;;;;19.11;64.42;96779.97;4984851;28;20230;-68
2023/05/23 06:42:31;;;;;;;5.20;4.43;;;;;;;19.20;63.81;96787.09;4986046;28;20192;-68
2023/05/23 06:45:16;;;;;;;5.63;4.87;;;;;;;19.47;62.74;96782.13;4985763;28;20207;-67
2023/05/23 06:47:44;;;;;;;7.10;4.30;;;;;;;19.63;63.02;96796.59;4986241;28;20202;-67
2023/05/23 06:50:11;;;;;;;6.23;4.27;;;;;;;19.24;64.30;96754.34;4969670;28;20291;-67
2023/05/23 06:52:41;;;;;;;6.27;4.60;;;;;;;19.77;63.64;96780.47;4984546;28;20202;-68
2023/05/23 06:55:13;;;;;;;6.20;4.60;;;;;;;19.57;62.22;96776.09;4985361;28;20312;-69
2023/05/23 06:57:40;;;;;;;9.00;5.27;;;;;;;19.67;62.63;96790.97;4986030;28;20228;-68
2023/05/23 07:00:08;;;;;;;5.47;4.50;;;;;;;19.74;62.16;96775.50;4985355;28;20213;-68
2023/05/23 07:02:47;;;;;;;7.07;4.73;;;;;;;19.85;62.92;96784.09;4998579;28;20268;-68
2023/05/23 07:05:18;;;;;;;5.33;4.73;;;;;;;20.03;61.27;96779.88;5000798;28;20752;-69
2023/05/23 07:07:47;;;;;;;6.37;4.83;;;;;;;19.78;61.75;96783.00;4985854;28;20634;-69
2023/05/23 07:10:15;;;;;;;6.43;4.60;;;;;;;19.78;62.06;96779.53;4968147;28;20725;-69
2023/05/23 07:12:46;;;;;;;7.70;4.50;;;;;;;19.92;61.63;96766.00;4985797;28;20215;-69
2023/05/23 07:15:15;;;;;;;6.67;4.50;;;;;;;19.98;61.48;96766.31;4984234;28;20198;-69
2023/05/23 07:17:54;;;;;;;5.37;4.13;;;;;;;19.82;62.67;96758.09;5001247;28;20660;-68
2023/05/23 07:20:22;;;;;;;6.87;4.67;;;;;;;19.73;61.72;96761.53;5001760;28;20218;-70
2023/05/23 07:22:52;;;;;;;4.97;3.93;;;;;;;20.02;61.23;96764.22;5000556;28;20206;-72
2023/05/23 07:25:22;;;;;;;7.47;5.27;;;;;;;19.95;61.35;96749.94;5011694;28;20238;-71
2023/05/23 07:27:49;;;;;;;5.10;4.13;;;;;;;19.97;60.88;96743.59;5003537;28;20305;-77
2023/05/23 07:30:16;;;;;;;6.30;4.33;;;;;;;19.72;60.61;96748.53;5005281;28;20234;-69
2023/05/23 07:32:44;;;;;;;7.13;4.80;;;;;;;19.81;61.60;96752.97;5005880;28;20289;-69
2023/05/23 07:35:17;;;;;;;5.87;4.50;;;;;;;20.17;60.57;96742.66;5004699;28;20195;-69
2023/05/23 07:37:44;;;;;;;5.23;3.90;;;;;;;20.43;58.63;96750.91;5007824;28;20217;-68
2023/05/23 07:40:13;;;;;;;4.70;4.13;;;;;;;20.75;58.24;96735.66;4990896;28;20210;-68
2023/05/23 07:42:41;;;;;;;5.40;4.03;;;;;;;20.76;57.46;96776.81;4992696;28;20203;-76
2023/05/23 07:45:09;;;;;;;4.40;4.00;;;;;;;20.33;56.91;96762.38;5007064;28;20622;-69
2023/05/23 07:47:40;;;;;;;5.37;4.00;;;;;;;20.10;57.40;96745.97;5008810;28;20311;-68
2023/05/23 07:50:08;;;;;;;5.20;4.10;;;;;;;20.51;58.60;96753.69;4991170;28;20202;-67
2023/05/23 07:52:36;;;;;;;5.37;3.87;;;;;;;20.73;56.61;96755.22;5008060;28;20198;-71
2023/05/23 07:55:05;;;;;;;5.47;3.10;;;;;;;20.56;55.51;96761.16;4991596;28;20332;-70
2023/05/23 07:57:32;;;;;;;5.30;3.47;;;;;;;20.73;56.32;96750.75;5007323;28;20199;-68
2023/05/23 08:00:00;;;;;;;4.57;4.03;;;;;;;20.92;57.75;96748.13;5008419;28;20586;-67
2023/05/23 08:02:31;;;;;;;6.10;3.80;;;;;;;21.26;56.16;96755.59;4990586;28;20211;-68
2023/05/23 08:04:58;;;;;;;5.33;3.93;;;;;;;21.48;54.57;96740.25;5009610;28;20192;-68
2023/05/23 08:07:25;;;;;;;6.30;3.67;;;;;;;21.58;53.56;96746.31;5007176;28;20195;-69
2023/05/23 08:09:57;;;;;;;7.00;3.60;;;;;;;21.82;53.21;96753.75;5007774;28;20828;-68
2023/05/23 08:12:24;;;;;;;5.00;3.93;;;;;;;21.91;53.05;96744.16;5008967;28;20228;-73
2023/05/23 08:15:00;;;;;;;4.20;3.73;;;;;;;21.93;53.30;96745.63;4990265;28;20198;-68
2023/05/23 08:17:36;;;;;;;5.13;3.60;;;;;;;22.16;52.92;96746.06;4993027;28;20225;-69
2023/05/23 08:20:04;;;;;;;12.20;4.23;;;;;;;22.17;52.70;96743.28;5006359;28;20203;-69
2023/05/23 08:22:32;;;;;;;3.70;3.40;;;;;;;22.36;52.47;96745.78;5008096;28;20656;-69
2023/05/23 08:24:59;;;;;;;5.80;3.23;;;;;;;22.46;50.77;96738.63;5007286;28;20201;-69
2023/05/23 08:27:30;;;;;;;4.80;3.60;;;;;;;22.34;52.68;96737.19;4991772;28;20197;-71
2023/05/23 08:30:03;;;;;;;5.80;3.90;;;;;;;22.44;52.84;96739.78;4991346;28;20728;-70
2023/05/23 08:32:31;;;;;;;5.53;3.53;;;;;;;22.41;50.52;96735.63;5006501;28;20193;-72
2023/05/23 08:34:59;;;;;;;4.33;3.57;;;;;;;22.19;52.66;96725.50;4991408;28;20204;-68
2023/05/23 08:37:27;;;;;;;4.23;3.37;;;;;;;22.38;51.79;96720.06;4990097;28;20232;-71
2023/05/23 08:39:55;;;;;;;4.70;3.43;;;;;;;21.71;52.33;96738.09;5007592;28;20265;-71
2023/05/23 08:42:39;;;;;;;4.20;3.43;;;;;;;21.75;52.14;96721.00;5007071;28;20208;-68
2023/05/23 08:45:09;;;;;;;5.30;3.77;;;;;;;22.06;51.24;96718.91;5005766;28;20200;-71
2023/05/23 08:47:37;;;;;;;5.63;3.30;;;;;;;22.39;51.47;96721.75;5007051;28;20686;-71
2023/05/23 08:50:07;;;;;;;4.30;3.53;;;;;;;22.15;51.86;96724.16;5004765;28;20200;-71
2023/05/23 08:52:36;;;;;;;4.00;3.57;;;;;;;22.11;50.57;96721.94;5007222;28;20664;-70
2023/05/23 08:55:04;;;;;;;5.90;3.50;;;;;;;22.25;50.84;96717.00;5006969;28;20223;-72
2023/05/23 08:57:34;;;;;;;5.53;3.30;;;;;;;22.54;49.78;96717.59;5005905;28;20199;-68
2023/05/23 09:00:19;;;;;;;5.17;3.40;;;;;;;22.50;50.33;96729.41;5006769;28;20192;-67
2023/05/23 09:02:47;;;;;;;5.37;3.80;;;;;;;22.60;50.25;96724.13;5005511;28;20639;-67
2023/05/23 09:05:34;;;;;;;5.70;3.17;;;;;;;22.43;50.53;96728.38;5007752;28;20286;-71
2023/05/23 09:08:02;;;;;;;5.30;3.40;;;;;;;22.08;50.53;96723.06;5005396;28;20705;-71
2023/05/23 09:10:29;;;;;;;5.50;3.60;;;;;;;22.27;50.68;96725.59;5022889;28;20219;-68
2023/05/23 09:12:58;;;;;;;5.40;3.70;;;;;;;22.61;49.45;96731.03;5006294;28;20210;-67
2023/05/23 09:15:26;;;;;;;4.53;3.40;;;;;;;22.44;49.02;96727.38;4989206;28;20209;-68
2023/05/23 09:18:00;;;;;;;12.07;6.67;;;;;;;22.62;47.68;96732.72;5007026;28;20193;-68
2023/05/23 09:20:27;;;;;;;6.17;4.93;;;;;;;22.73;47.98;96718.44;5004863;28;20705;-70
2023/05/23 09:22:58;;;;;;;6.67;3.77;;;;;;;22.67;46.00;96729.63;5023265;28;20193;-74
2023/05/23 09:25:28;;;;;;;7.17;4.07;;;;;;;22.52;47.42;96730.09;5005357;28;20194;-68
2023/05/23 09:27:58;;;;;;;3.47;3.10;;;;;;;22.22;47.73;96709.38;5006506;28;20209;-70
2023/05/23 09:30:26;;;;;;;3.57;3.10;;;;;;;22.83;46.60;96720.03;5006329;28;20239;-73
2023/05/23 09:33:01;;;;;;;3.37;2.90;;;;;;;22.31;47.90;96724.31;5005143;28;20206;-74
2023/05/23 09:35:46;;;;;;;4.60;3.40;;;;;;;22.60;47.53;96722.31;5005206;28;20211;-74
2023/05/23 09:38:13;;;;;;;4.03;3.30;;;;;;;;;;5005661;28;20193;-77
2023/05/23 09:40:44;;;;;;;4.10;3.33;;;;;;;23.08;44.91;96726.31;5006428;28;20190;-72
2023/05/23 09:43:11;;;;;;;5.27;3.40;;;;;;;23.13;45.05;96727.50;5007357;28;20196;-77
2023/05/23 09:45:38;;;;;;;4.63;3.30;;;;;;;23.44;45.01;96719.97;5005650;28;20261;-72
2023/05/23 09:48:11;;;;;;;6.47;3.27;;;;;;;23.41;45.13;96707.88;5006560;28;20225;-74
2023/05/23 09:50:38;;;;;;;3.77;3.07;;;;;;;23.50;44.50;96729.06;5004619;28;20206;-72
2023/05/23 09:53:06;;;;;;;4.83;3.20;;;;;;;23.03;45.32;96720.66;5007573;28;20196;-69
2023/05/23 09:55:33;;;;;;;4.17;3.33;;;;;;;22.95;46.16;96728.53;5006154;28;20230;-69
2023/05/23 09:58:02;;;;;;;4.47;3.50;;;;;;;22.59;47.79;96731.19;5007406;28;21109;-69
2023/05/23 10:00:30;;;;;;;4.07;3.27;;;;;;;22.53;47.84;96723.84;4988144;28;20200;-69
2023/05/23 10:03:09;;;;;;;3.60;3.30;;;;;;;22.55;46.41;96718.41;5005337;28;20680;-71
2023/05/23 10:05:42;;;;;;;4.43;3.33;;;;;;;23.07;46.51;96727.28;5007094;28;20203;-69
2023/05/23 10:08:15;;;;;;;4.93;3.10;;;;;;;23.14;44.65;96717.78;5021470;28;20199;-71
2023/05/23 10:11:11;;;;;;;3.63;3.17;;;;;;;23.66;43.61;96708.81;5007826;28;20240;-75
2023/05/23 10:13:41;;;;;;;3.50;2.80;;;;;;;23.02;44.38;96709.25;4991567;28;20200;-68
2023/05/23 10:16:33;;;;;;;3.80;3.07;;;;;;;22.93;44.38;96719.91;5005760;28;20194;-67
2023/05/23 10:19:08;;;;;;;10.50;5.23;;;;;;;23.00;44.68;96711.22;5005604;28;20244;-67
2023/05/23 10:21:43;;;;;;;4.97;3.27;;;;;;;23.03;43.44;96710.09;5020767;28;20310;-69
2023/05/23 10:24:13;;;;;;;7.53;4.40;;;;;;;23.32;44.52;96706.19;5021621;28;20224;-70
2023/05/23 10:26:40;;;;;;;7.33;3.27;;;;;;;23.54;44.29;96715.38;5021492;28;20206;-73
2023/05/23 10:29:07;;;;;;;4.37;2.70;;;;;;;23.31;45.35;96719.50;5004504;28;20204;-72
2023/05/23 10:31:35;;;;;;;3.80;2.67;;;;;;;23.11;43.95;96707.50;5006933;28;20251;-74
2023/05/23 10:34:17;;;;;;;5.03;3.30;;;;;;;23.36;44.77;96698.78;5019824;28;20685;-79
2023/05/23 10:37:05;;;;;;;3.80;3.40;;;;;;;23.78;43.35;96709.38;5006653;28;20249;-76
2023/05/23 10:39:50;;;;;;;6.07;2.93;;;;;;;23.96;43.63;96703.00;5021063;28;20211;-78
2023/05/23 10:42:21;;;;;;;3.30;3.00;;;;;;;24.13;42.96;96702.06;5005469;28;20209;-72
2023/05/23 10:44:48;;;;;;;6.33;3.13;;;;;;;23.60;43.79;96703.34;5005226;28;20646;-71
2023/05/23 10:47:27;;;;;;;5.43;3.40;;;;;;;23.65;42.92;96696.59;5004958;28;20198;-71
2023/05/23 10:49:54;;;;;;;5.20;3.50;;;;;;;24.03;43.62;96690.81;5005050;28;20198;-72
2023/05/23 10:52:26;;;;;;;4.47;3.47;;;;;;;24.08;43.39;96700.91;5003776;28;20232;-69
2023/05/23 10:54:55;;;;;;;3.90;3.50;;;;;;;24.39;42.21;96706.44;5005699;28;20193;-70
2023/05/23 10:57:28;;;;;;;4.13;3.57;;;;;;;24.55;42.04;96701.97;5006716;28;20678;-71
2023/05/23 10:59:55;;;;;;;6.30;3.40;;;;;;;24.12;44.23;96700.44;5003613;28;20209;-73
2023/05/23 11:02:27;;;;;;;4.20;3.60;;;;;;;24.10;42.77;96707.72;5006603;28;20584;-78
2023/05/23 11:05:21;;;;;;;6.37;3.37;;;;;;;23.95;42.45;96701.34;5004047;28;20206;-72
2023/05/23 11:08:10;;;;;;;7.43;4.03;;;;;;;24.07;43.84;96701.91;5006157;28;20197;-75
2023/05/23 11:10:58;;;;;;;3.10;2.80;;;;;;;23.41;44.26;96705.22;5005175;28;20199;-71
2023/05/23 11:13:51;;;;;;;3.90;3.27;;;;;;;23.65;44.78;96701.88;5008268;28;20221;-68
2023/05/23 11:16:29;;;;;;;3.43;3.10;;;;;;;23.97;45.68;96702.00;5010443;28;20194;-68
2023/05/23 11:19:18;;;;;;;7.07;3.57;;;;;;;24.49;44.00;96705.28;5008756;28;20198;-68
2023/05/23 11:21:51;;;;;;;3.63;3.23;;;;;;;23.34;43.05;96706.88;4991624;28;20780;-72
2023/05/23 11:24:18;;;;;;;3.70;2.90;;;;;;;22.90;44.39;96702.56;5009238;28;20299;-71
2023/05/23 11:27:02;;;;;;;3.87;3.10;;;;;;;23.29;43.84;96702.97;5009225;28;20205;-72
2023/05/23 11:29:30;;;;;;;4.50;3.00;;;;;;;23.61;43.32;96708.50;5009770;28;20197;-71
2023/05/23 11:31:57;;;;;;;4.30;2.70;;;;;;;23.98;42.09;96706.31;5008817;28;20239;-75
2023/05/23 11:34:25;;;;;;;6.50;3.13;;;;;;;24.25;43.90;96710.56;5009288;28;20222;-76
2023/05/23 11:36:54;;;;;;;3.87;3.03;;;;;;;24.22;44.67;96710.88;5008554;28;20248;-77
2023/05/23 11:39:22;;;;;;;7.67;3.93;;;;;;;24.28;45.82;96699.63;5009047;28;20199;-78
2023/05/23 11:41:58;;;;;;;5.00;3.20;;;;;;;24.12;45.30;96703.06;5010025;28;20230;-78
2023/05/23 11:44:26;;;;;;;3.77;3.30;;;;;;;24.08;44.36;96708.84;5009354;28;20269;-77
2023/05/23 11:47:00;;;;;;;4.23;3.40;;;;;;;24.38;43.33;96704.78;5009117;28;20269;-76
2023/05/23 11:49:33;;;;;;;5.57;3.90;;;;;;;24.62;42.82;96692.41;5008596;28;20192;-77
2023/05/23 11:52:01;;;;;;;5.00;4.03;;;;;;;25.06;41.54;96711.44;5007323;28;20251;-70
2023/05/23 11:54:28;;;;;;;5.67;4.07;;;;;;;25.28;40.90;96686.91;5009984;28;20206;-69
2023/05/23 11:56:56;;;;;;;7.47;4.47;;;;;;;25.46;39.52;96698.16;5007096;28;20225;-72
2023/05/23 11:59:25;;;;;;;4.37;3.37;;;;;;;25.28;39.64;96694.84;5009685;28;20197;-68
2023/05/23 12:01:53;;;;;;;9.20;5.90;;;;;;;24.50;41.54;96692.88;5007909;28;20213;-73
2023/05/23 12:04:20;;;;;;;6.77;4.63;;;;;;;23.66;44.89;96692.97;5008826;28;20286;-75
2023/05/23 12:06:49;;;;;;;6.60;3.67;;;;;;;23.61;45.39;96686.50;5009709;28;20281;-72
2023/05/23 12:09:16;;;;;;;7.07;3.40;;;;;;;22.96;46.93;96694.03;5008396;28;20208;-78
2023/05/23 12:11:44;;;;;;;9.77;5.60;;;;;;;22.95;46.95;96696.81;5008308;28;20244;-72
2023/05/23 12:14:16;;;;;;;3.90;3.20;;;;;;;23.03;47.69;96689.78;5008092;28;20675;-75
2023/05/23 12:16:46;;;;;;;4.30;3.23;;;;;;;23.24;45.39;96703.47;5009194;28;20902;-71
2023/05/23 12:19:16;;;;;;;5.63;3.40;;;;;;;23.57;44.73;96699.22;4991333;28;20243;-68
2023/05/23 12:21:48;;;;;;;4.43;3.00;;;;;;;23.72;44.55;96686.22;5006819;28;20195;-68
2023/05/23 12:24:19;;;;;;;5.73;3.43;;;;;;;23.93;44.60;96700.66;5006746;28;20230;-74
2023/05/23 12:26:50;;;;;;;6.90;4.07;;;;;;;23.58;44.45;96692.94;5006663;28;20213;-75
2023/05/23 12:29:21;;;;;;;6.37;3.60;;;;;;;23.72;44.28;96687.03;5009122;28;20202;-68
2023/05/23 12:31:50;;;;;;;6.30;3.50;;;;;;;23.52;44.46;96680.34;5008301;28;20232;-69
2023/05/23 12:34:19;;;;;;;5.00;2.90;;;;;;;23.71;43.96;96682.75;5007638;28;20297;-72
2023/05/23 12:36:48;;;;;;;5.17;3.20;;;;;;;23.75;44.70;96676.16;5008813;28;20194;-71
2023/05/23 12:39:25;;;;;;;4.17;3.13;;;;;;;23.48;45.60;96689.56;5008126;28;20194;-73
2023/05/23 12:42:32;;;;;;;5.53;3.47;;;;;;;23.12;46.52;96654.50;5010072;28;20724;-69
2023/05/23 12:45:53;;;;;;;4.77;3.70;;;;;;;22.91;47.46;96683.09;4988773;28;20210;-76
2023/05/23 12:49:14;;;;;;;4.27;2.90;;;;;;;22.89;47.68;96681.59;5003593;28;20230;-69
2023/05/23 12:52:36;;;;;;;4.87;3.47;;;;;;;22.79;45.08;96679.06;5006704;28;20240;-74
2023/05/23 12:55:56;;;;;;;3.87;2.70;;;;;;;22.59;44.84;96680.19;5008457;28;20291;-72
2023/05/23 12:59:18;;;;;;;6.00;3.77;;;;;;;22.91;44.96;96695.47;5006431;28;20213;-69
2023/05/23 13:02:00;;;;;;;4.00;2.70;;;;;;;22.82;41.97;96683.19;5007291;28;20208;-73
2023/05/23 13:04:27;;;;;;;5.20;3.07;;;;;;;23.12;43.34;96678.28;5008238;28;20189;-69
2023/05/23 13:06:57;;;;;;;3.73;2.90;;;;;;;23.44;42.50;96677.66;5006500;28;20213;-68
2023/05/23 13:09:24;;;;;;;4.70;3.07;;;;;;;23.74;41.58;96678.97;5022362;28;20212;-70
2023/05/23 13:11:51;;;;;;;3.47;2.63;;;;;;;23.05;42.69;96671.13;5007310;28;20251;-73
2023/05/23 13:14:19;;;;;;;3.57;2.97;;;;;;;23.27;42.85;96670.59;4989656;28;20233;-70
2023/05/23 13:16:46;;;;;;;2.90;2.47;;;;;;;23.04;43.63;96682.69;5007301;28;20197;-70
2023/05/23 13:19:13;;;;;;;3.57;2.83;;;;;;;22.66;45.69;96670.69;5007020;28;20212;-67
2023/05/23 13:21:40;;;;;;;3.10;2.80;;;;;;;22.43;42.55;96672.97;5006349;28;20231;-67
2023/05/23 13:24:07;;;;;;;4.57;3.00;;;;;;;22.14;45.81;96679.44;5007751;28;20203;-74
2023/05/23 13:26:34;;;;;;;4.20;3.13;;;;;;;22.13;47.64;96678.63;5007328;28;20212;-68
2023/05/23 13:29:01;;;;;;;4.80;3.40;;;;;;;22.27;47.69;96670.19;5007700;28;20230;-73